Guernsey Island, United Kingdom
Current Conditions -  °F | °C
As of 4:20 PM on Wednesday 26 Nov 2014 (Local Time) from EGJB Reporting Station
Light Rain Light Rain  
Wind Chill: 10°   Ceiling: 900
Heat Index: 10°   Visibility: 6mi
Dew Point: 10°   Wind: 8mph
Humidity: 100%   Direction: 340°NNW
Pressure: 29.8"   Gusts: NA
Location:  49.43°N, 2.6°W
Report Text: EGJB 261520Z 34007KT 9999 -RA FEW005 BKN009 10/10 Q1009
Loading
Personal Weather Stations






























Interactive Weather Map New forecast layout! Learn more

10-Day Weather Forecast

Advertisements
Track Severe Weather on mobile